Time;durP1;ratioP1;P1;durP2;ratioP2;P2;SDS_P1;SDS_P2;PMS_P1;PMS_P2;Temp;Humidity;BMP_temperature;BMP_pressure;BME280_temperature;BME280_humidity;BME280_pressure;Samples;Min_cycle;Max_cycle;Signal;HPM_P1;HPM_P2
2022/08/10 00:01:48;;;;;;;6.00;2.45;;;;;;;15.70;68.25;97451.95;1673766;85;21517;-81
2022/08/10 00:04:14;;;;;;;3.90;2.20;;;;;;;15.67;68.38;97447.59;1673430;84;21120;-81
2022/08/10 00:06:39;;;;;;;3.52;2.40;;;;;;;15.64;68.49;97448.78;1680187;84;21003;-81
2022/08/10 00:09:05;;;;;;;4.78;2.55;;;;;;;15.62;68.79;97450.78;1686984;84;20935;-81
2022/08/10 00:11:31;;;;;;;5.58;2.10;;;;;;;15.58;69.03;97444.25;1676572;85;21080;-81
2022/08/10 00:13:57;;;;;;;4.95;2.37;;;;;;;15.58;69.21;97441.63;1683332;84;21098;-81
2022/08/10 00:16:23;;;;;;;4.75;2.22;;;;;;;15.55;69.39;97434.15;1676983;85;21406;-81
2022/08/10 00:18:48;;;;;;;3.42;2.47;;;;;;;15.53;69.23;97439.58;1678533;84;21079;-81
2022/08/10 00:21:14;;;;;;;3.60;1.98;;;;;;;15.50;69.50;97442.58;1705114;82;21043;-81
2022/08/10 00:23:40;;;;;;;4.47;2.37;;;;;;;15.46;69.79;97446.57;1645241;86;20963;-80
2022/08/10 00:26:05;;;;;;;3.08;2.35;;;;;;;15.42;69.66;97440.06;1674157;84;21540;-80
2022/08/10 00:28:33;;;;;;;3.55;2.42;;;;;;;15.39;69.90;97442.25;1666645;85;21032;-81
2022/08/10 00:30:59;;;;;;;6.08;2.33;;;;;;;15.36;70.01;97440.00;1674802;84;20957;-81
2022/08/10 00:33:25;;;;;;;3.58;1.82;;;;;;;15.33;70.17;97445.12;1678017;85;21044;-81
2022/08/10 00:35:50;;;;;;;3.42;2.27;;;;;;;15.30;70.11;97443.69;1662701;84;21020;-81
2022/08/10 00:38:16;;;;;;;3.80;2.40;;;;;;;15.28;70.33;97440.42;1651590;86;20979;-81
2022/08/10 00:40:42;;;;;;;9.30;2.50;;;;;;;15.24;70.36;97439.17;1669416;84;21080;-81
2022/08/10 00:43:08;;;;;;;5.00;2.47;;;;;;;15.23;70.73;97447.22;1659570;86;21095;-81
2022/08/10 00:45:35;;;;;;;4.28;2.60;;;;;;;15.20;71.26;97452.33;1686066;84;21008;-81
2022/08/10 00:48:00;;;;;;;4.00;2.35;;;;;;;15.18;71.26;97450.39;1644454;85;21020;-80
2022/08/10 00:50:27;;;;;;;3.67;2.58;;;;;;;15.16;71.42;97447.66;1668963;86;20992;-81
2022/08/10 00:52:53;;;;;;;3.45;1.80;;;;;;;15.14;71.67;97448.34;1651340;86;21003;-81
2022/08/10 00:55:19;;;;;;;4.55;2.40;;;;;;;15.13;71.62;97444.07;1647899;84;20951;-80
2022/08/10 00:57:45;;;;;;;4.10;2.52;;;;;;;15.11;71.51;97439.52;1667725;85;20983;-80
2022/08/10 01:00:11;;;;;;;3.35;2.35;;;;;;;15.08;71.60;97435.97;1667645;85;21371;-81
2022/08/10 01:02:39;;;;;;;5.50;3.25;;;;;;;15.06;71.52;97433.53;1639570;84;20955;-80
2022/08/10 01:05:08;;;;;;;4.95;2.27;;;;;;;14.99;71.82;97434.78;1665717;86;21136;-81
2022/08/10 01:08:21;;;;;;;4.33;2.12;;;;;;;14.94;71.76;97434.50;1667908;86;21003;-81
2022/08/10 01:11:08;;;;;;;4.65;2.35;;;;;;;14.91;72.12;97443.22;1664436;84;21473;-80
2022/08/10 01:13:44;;;;;;;5.50;2.10;;;;;;;14.85;72.10;97438.23;1663773;85;21023;-80
2022/08/10 01:16:40;;;;;;;4.35;2.00;;;;;;;14.84;72.29;97437.11;1652537;85;21394;-81
2022/08/10 01:19:43;;;;;;;4.22;2.50;;;;;;;14.81;72.39;97431.75;1650181;86;21360;-81
2022/08/10 01:22:55;;;;;;;4.08;2.42;;;;;;;14.79;72.87;97432.89;1649536;85;21055;-81
2022/08/10 01:25:41;;;;;;;3.95;2.55;;;;;;;14.75;72.95;97436.38;1668338;86;21016;-81
2022/08/10 01:28:28;;;;;;;3.77;2.70;;;;;;;14.70;73.25;97434.81;1670257;84;21468;-81
2022/08/10 01:30:55;;;;;;;3.35;2.17;;;;;;;14.65;73.29;97433.25;1676085;85;21387;-80
2022/08/10 01:33:38;;;;;;;4.53;2.02;;;;;;;14.64;73.47;97440.75;1673874;84;21096;-81
2022/08/10 01:36:13;;;;;;;3.00;1.90;;;;;;;14.61;73.65;97438.01;1661694;85;20960;-81
2022/08/10 01:38:47;;;;;;;4.62;2.50;;;;;;;14.60;73.71;97431.16;1659362;84;22115;-80
2022/08/10 01:41:20;;;;;;;3.92;2.20;;;;;;;14.60;73.94;97435.08;1676781;85;21439;-81
2022/08/10 01:44:12;;;;;;;4.55;2.20;;;;;;;14.58;74.16;97433.64;1660649;85;21613;-81
2022/08/10 01:46:39;;;;;;;;;;;;;;;14.55;74.16;97428.28;1653393;85;21511;-80
2022/08/10 01:49:08;;;;;;;3.72;2.58;;;;;;;14.51;74.42;97428.33;1663878;84;20133;-81
2022/08/10 01:51:37;;;;;;;5.37;2.50;;;;;;;14.45;74.46;97434.77;1656478;86;21441;-80
2022/08/10 01:54:06;;;;;;;2.52;2.17;;;;;;;14.41;74.65;97436.41;1653801;85;21079;-80
2022/08/10 01:56:35;;;;;;;3.05;2.35;;;;;;;14.40;74.68;97442.63;1694172;84;21593;-80
2022/08/10 01:59:12;;;;;;;4.03;2.10;;;;;;;14.39;74.78;97433.66;1642333;85;21390;-80
2022/08/10 02:01:41;;;;;;;6.17;2.80;;;;;;;14.39;74.63;97437.09;1649420;85;20980;-80
2022/08/10 02:04:09;;;;;;;5.35;2.65;;;;;;;14.39;74.95;97439.70;1672483;84;21086;-81
2022/08/10 02:06:45;;;;;;;5.30;2.87;;;;;;;14.37;75.04;97439.07;1661595;85;21375;-80
2022/08/10 02:09:17;;;;;;;4.50;2.83;;;;;;;14.36;75.13;97436.64;1658858;85;21131;-81
2022/08/10 02:11:43;;;;;;;4.83;2.60;;;;;;;14.33;75.34;97440.92;1667774;84;21052;-80
2022/08/10 02:14:12;;;;;;;5.08;2.62;;;;;;;14.30;75.38;97438.15;1689820;84;21486;-80
2022/08/10 02:16:38;;;;;;;4.10;2.40;;;;;;;14.28;75.47;97441.44;1661063;86;21040;-80
2022/08/10 02:19:03;;;;;;;3.67;2.30;;;;;;;14.28;75.52;97440.13;1684030;85;20956;-81
2022/08/10 02:21:29;;;;;;;4.22;2.65;;;;;;;14.27;75.59;97438.52;1678583;84;20972;-80
2022/08/10 02:23:55;;;;;;;2.75;2.45;;;;;;;14.26;75.80;97433.46;1664773;85;21406;-81
2022/08/10 02:26:21;;;;;;;3.55;2.45;;;;;;;14.26;75.93;97433.46;1676593;84;20993;-81
2022/08/10 02:28:47;;;;;;;3.50;2.67;;;;;;;14.25;76.00;97435.77;1640034;84;21030;-81
2022/08/10 02:31:15;;;;;;;3.00;2.70;;;;;;;14.22;76.23;97433.02;1658034;84;20987;-81
2022/08/10 02:33:44;;;;;;;4.92;2.50;;;;;;;14.19;76.32;97437.30;1639192;86;20951;-80
2022/08/10 02:36:10;;;;;;;6.47;2.75;;;;;;;14.18;76.38;97443.52;1644291;86;21004;-81
2022/08/10 02:38:48;;;;;;;4.83;2.77;;;;;;;14.18;76.35;97444.83;1614057;87;20995;-80
2022/08/10 02:41:35;;;;;;;3.72;2.70;;;;;;;14.16;76.43;97449.42;1629211;87;21007;-80
2022/08/10 02:44:08;;;;;;;4.58;2.72;;;;;;;14.14;76.44;97448.77;1641303;86;21422;-81
2022/08/10 02:46:47;;;;;;;5.45;2.83;;;;;;;14.11;76.60;97446.51;1646948;85;21569;-80
2022/08/10 02:49:23;;;;;;;3.47;2.60;;;;;;;14.07;76.74;97444.75;1661608;84;20979;-80
2022/08/10 02:51:56;;;;;;;4.90;2.70;;;;;;;14.02;77.12;97445.79;1659786;86;20987;-80
2022/08/10 02:54:25;;;;;;;6.10;2.50;;;;;;;14.01;77.27;97452.50;1642543;86;21051;-80
2022/08/10 02:57:05;;;;;;;4.00;2.62;;;;;;;14.00;77.23;97446.96;1613108;88;21551;-80
2022/08/10 02:59:35;;;;;;;3.95;2.60;;;;;;;14.00;77.28;97451.69;1644703;86;21418;-80
2022/08/10 03:02:02;;;;;;;3.20;2.77;;;;;;;13.99;77.15;97449.23;1659515;85;20975;-81
2022/08/10 03:04:39;;;;;;;5.97;3.30;;;;;;;13.96;77.12;97458.23;1671705;85;21000;-80
2022/08/10 03:07:07;;;;;;;5.50;2.90;;;;;;;13.92;77.22;97450.94;1655914;85;21004;-80
2022/08/10 03:09:32;;;;;;;6.03;2.72;;;;;;;13.90;77.34;97459.45;1647507;86;21036;-80
2022/08/10 03:11:58;;;;;;;3.98;2.22;;;;;;;13.88;77.53;97453.09;1625235;87;20983;-81
2022/08/10 03:14:24;;;;;;;4.62;2.42;;;;;;;13.88;77.54;97457.51;1630520;87;21024;-81
2022/08/10 03:16:50;;;;;;;4.80;2.75;;;;;;;13.88;77.73;97458.81;1634750;88;21113;-81
2022/08/10 03:19:16;;;;;;;3.83;3.10;;;;;;;13.88;77.57;97457.51;1614582;86;21039;-81
2022/08/10 03:21:42;;;;;;;4.53;2.70;;;;;;;13.86;77.82;97453.77;1637084;85;21036;-80
2022/08/10 03:24:07;;;;;;;3.25;2.80;;;;;;;13.84;77.81;97464.08;1634072;88;21478;-81
2022/08/10 03:26:33;;;;;;;5.87;2.77;;;;;;;13.79;77.99;97460.17;1635558;87;20990;-81
2022/08/10 03:28:59;;;;;;;4.78;2.80;;;;;;;13.77;78.05;97460.03;1640438;87;21002;-81
2022/08/10 03:31:26;;;;;;;2.87;2.30;;;;;;;13.77;78.19;97465.25;1676407;84;21012;-80
2022/08/10 03:33:52;;;;;;;3.72;2.62;;;;;;;13.78;78.07;97461.66;1676387;86;21515;-81
2022/08/10 03:36:18;;;;;;;4.83;2.55;;;;;;;13.75;78.15;97460.21;1675432;84;20964;-80
2022/08/10 03:38:47;;;;;;;5.53;2.70;;;;;;;13.75;78.09;97464.63;1676063;84;20976;-80
2022/08/10 03:41:11;;;;;;;5.17;3.22;;;;;;;13.75;78.27;97465.44;1676255;84;21044;-80
2022/08/10 03:43:37;;;;;;;5.35;2.90;;;;;;;13.73;78.28;97466.11;1684583;83;21000;-80
2022/08/10 03:46:06;;;;;;;4.20;2.70;;;;;;;13.69;78.33;97460.92;1676582;85;21419;-80
2022/08/10 03:48:32;;;;;;;3.72;2.60;;;;;;;13.69;78.49;97462.23;1676392;86;21051;-80
2022/08/10 03:50:57;;;;;;;3.62;2.62;;;;;;;13.70;78.62;97467.77;1691448;84;21056;-80
2022/08/10 03:53:23;;;;;;;4.50;2.72;;;;;;;13.73;78.85;97461.38;1680817;83;22053;-80
2022/08/10 03:55:49;;;;;;;4.20;2.60;;;;;;;13.74;78.71;97461.20;1664412;85;21043;-81
2022/08/10 03:58:15;;;;;;;3.83;2.60;;;;;;;13.76;78.74;97468.86;1662838;86;21022;-81
2022/08/10 04:00:40;;;;;;;4.40;2.55;;;;;;;13.75;78.82;97465.44;1658422;85;21328;-80
2022/08/10 04:03:06;;;;;;;4.10;2.80;;;;;;;13.75;78.82;97466.73;1690064;84;20990;-80
2022/08/10 04:05:32;;;;;;;5.28;2.90;;;;;;;13.74;78.80;97469.53;1658994;85;20976;-81
2022/08/10 04:08:00;;;;;;;5.05;2.50;;;;;;;13.71;78.93;97468.58;1671983;84;20969;-81
2022/08/10 04:10:26;;;;;;;3.80;2.40;;;;;;;13.73;79.04;97463.49;1669419;84;21030;-80
2022/08/10 04:12:52;;;;;;;3.92;2.77;;;;;;;13.78;79.17;97478.14;1675976;84;21446;-81
2022/08/10 04:15:18;;;;;;;3.45;2.52;;;;;;;13.79;79.21;97477.64;1661858;86;20980;-80
2022/08/10 04:17:43;;;;;;;3.92;2.90;;;;;;;13.80;79.29;97485.30;1657284;85;21023;-81
2022/08/10 04:20:35;;;;;;;5.00;2.70;;;;;;;13.79;79.51;97486.30;1656925;86;20956;-80
2022/08/10 04:23:10;;;;;;;4.55;2.92;;;;;;;13.79;79.70;97483.68;1668710;84;21056;-80
2022/08/10 04:25:37;;;;;;;4.47;2.52;;;;;;;13.79;79.75;97479.77;1676375;85;21402;-80
2022/08/10 04:28:03;;;;;;;4.50;2.77;;;;;;;13.81;79.71;97493.45;1644500;85;20993;-80
2022/08/10 04:30:29;;;;;;;3.67;2.30;;;;;;;13.81;79.79;97486.92;1667829;84;21055;-80
2022/08/10 04:32:54;;;;;;;3.27;2.87;;;;;;;13.85;79.88;97490.52;1668392;85;21399;-80
2022/08/10 04:35:21;;;;;;;3.58;2.58;;;;;;;13.87;79.98;97481.52;1673007;84;21064;-80
2022/08/10 04:37:47;;;;;;;4.42;2.87;;;;;;;13.90;80.13;97482.96;1651517;85;21331;-79
2022/08/10 04:40:16;;;;;;;3.02;2.60;;;;;;;13.91;80.27;97489.81;1678122;85;21051;-80
2022/08/10 04:42:42;;;;;;;2.77;2.47;;;;;;;13.91;80.32;97489.81;1678613;85;21391;-81
2022/08/10 04:45:10;;;;;;;3.87;2.65;;;;;;;13.90;80.37;97486.39;1673682;84;20987;-80
2022/08/10 04:47:37;;;;;;;5.45;2.67;;;;;;;13.90;80.45;97490.30;1681146;85;21072;-80
2022/08/10 04:50:04;;;;;;;5.97;3.08;;;;;;;13.92;80.45;97483.59;1678473;85;21032;-81
2022/08/10 04:52:30;;;;;;;3.15;2.15;;;;;;;13.95;80.67;97493.69;1666307;84;20992;-80
2022/08/10 04:54:56;;;;;;;4.05;3.47;;;;;;;13.99;80.82;97491.03;1662633;85;21370;-80
2022/08/10 04:57:22;;;;;;;4.62;2.90;;;;;;;14.02;80.77;97498.05;1670526;84;21015;-80
2022/08/10 04:59:47;;;;;;;4.35;2.80;;;;;;;14.04;80.87;97492.65;1685448;84;21012;-80
2022/08/10 05:02:14;;;;;;;4.03;2.75;;;;;;;14.04;81.04;97490.03;1677640;84;21417;-80
2022/08/10 05:04:40;;;;;;;3.40;2.50;;;;;;;14.06;81.21;97494.59;1678166;85;20972;-80
2022/08/10 05:07:09;;;;;;;4.10;3.02;;;;;;;14.10;81.41;97499.28;1672846;84;21027;-81
2022/08/10 05:09:36;;;;;;;3.35;2.40;;;;;;;14.16;81.27;97495.66;1671752;84;21032;-80
2022/08/10 05:12:03;;;;;;;3.00;2.40;;;;;;;14.21;81.56;97505.89;1677227;85;21043;-80
2022/08/10 05:14:29;;;;;;;3.02;2.35;;;;;;;14.25;81.49;97503.23;1672882;85;21480;-83
2022/08/10 05:16:54;;;;;;;4.45;3.08;;;;;;;14.30;81.58;97508.73;1675992;84;21072;-80
2022/08/10 05:19:20;;;;;;;4.70;2.90;;;;;;;14.34;81.61;97510.52;1678287;85;20937;-80
2022/08/10 05:21:46;;;;;;;3.10;2.70;;;;;;;14.37;81.87;97516.70;1674254;84;21003;-80
2022/08/10 05:24:11;;;;;;;4.28;2.95;;;;;;;14.42;81.85;97508.63;1678534;85;21035;-80
2022/08/10 05:26:37;;;;;;;4.97;2.62;;;;;;;14.48;81.91;97510.23;1678545;85;21382;-80
2022/08/10 05:29:03;;;;;;;3.45;2.35;;;;;;;14.52;81.87;97514.14;1666678;85;21052;-81
2022/08/10 05:31:29;;;;;;;5.28;3.50;;;;;;;14.57;81.95;97515.72;1663804;85;20987;-80
2022/08/10 05:33:55;;;;;;;3.33;3.00;;;;;;;14.62;82.00;97517.29;1662385;85;20990;-80
2022/08/10 05:36:21;;;;;;;5.03;3.20;;;;;;;14.65;82.06;97514.34;1663616;85;21379;-80
2022/08/10 05:38:48;;;;;;;5.30;3.42;;;;;;;14.68;82.20;97519.20;1650784;85;21086;-80
2022/08/10 05:41:14;;;;;;;4.87;3.22;;;;;;;14.72;82.47;97513.92;1663675;85;21404;-80
2022/08/10 05:43:41;;;;;;;4.50;3.62;;;;;;;14.78;82.31;97513.19;1664021;85;21000;-80
2022/08/10 05:46:07;;;;;;;5.42;4.00;;;;;;;14.86;82.10;97519.66;1674667;85;21031;-81
2022/08/10 05:48:37;;;;;;;3.60;3.25;;;;;;;14.94;82.21;97514.81;1665405;85;21652;-80
2022/08/10 05:51:03;;;;;;;5.47;3.80;;;;;;;14.95;81.95;97505.47;1654386;86;21009;-80
2022/08/10 05:53:31;;;;;;;4.22;3.42;;;;;;;14.98;82.14;97507.75;1644404;87;20990;-80
2022/08/10 05:55:57;;;;;;;6.12;3.22;;;;;;;15.04;82.17;97512.74;1645038;84;21080;-80
2022/08/10 05:58:23;;;;;;;5.97;4.10;;;;;;;15.08;82.06;97517.11;1651765;85;21020;-81
2022/08/10 06:00:53;;;;;;;5.20;3.92;;;;;;;15.13;82.11;97516.90;1655566;85;21007;-80
2022/08/10 06:03:22;;;;;;;5.20;4.25;;;;;;;15.19;82.31;97513.54;1621310;87;21060;-81
2022/08/10 06:05:47;;;;;;;6.33;4.40;;;;;;;15.26;82.04;97515.73;1638479;87;21010;-81
2022/08/10 06:08:19;;;;;;;6.10;4.28;;;;;;;15.34;82.23;97514.02;1643056;87;21368;-81
2022/08/10 06:10:45;;;;;;;5.65;4.80;;;;;;;15.41;82.17;97517.50;1652239;86;20952;-81
2022/08/10 06:15:56;;;;;;;8.08;4.53;;;;;;;15.47;81.97;97509.74;1663742;85;21028;-80
2022/08/10 06:18:22;;;;;;;8.90;4.33;;;;;;;15.51;82.07;97505.75;1663896;86;21080;-80
2022/08/10 06:20:49;;;;;;;8.98;4.75;;;;;;;15.55;81.88;97512.23;1663861;85;21071;-80
2022/08/10 06:23:14;;;;;;;7.22;4.85;;;;;;;15.64;81.58;97509.05;1654038;87;21008;-80
2022/08/10 06:25:40;;;;;;;5.20;4.08;;;;;;;15.71;81.86;97507.79;1654045;87;20964;-80
2022/08/10 06:28:06;;;;;;;6.58;3.87;;;;;;;15.77;82.05;97508.34;1653917;86;21028;-81
2022/08/10 06:30:32;;;;;;;5.85;4.10;;;;;;;15.79;82.06;97513.73;1653917;86;21047;-81
2022/08/10 06:32:58;;;;;;;8.00;3.77;;;;;;;15.84;82.46;97511.86;1653688;86;21052;-81
2022/08/10 06:35:26;;;;;;;5.50;3.52;;;;;;;15.89;82.62;97512.09;1605749;88;21021;-80
2022/08/10 06:37:52;;;;;;;6.60;4.33;;;;;;;15.98;82.54;97514.11;1625646;87;21060;-81
2022/08/10 06:40:19;;;;;;;7.58;3.90;;;;;;;16.08;82.55;97509.34;1633994;86;20943;-80
2022/08/10 06:42:47;;;;;;;5.05;3.62;;;;;;;16.18;82.41;97510.64;1629208;87;21031;-81
2022/08/10 06:45:19;;;;;;;6.78;4.67;;;;;;;16.28;82.42;97512.14;1633585;86;21024;-80
2022/08/10 06:48:05;;;;;;;4.37;3.47;;;;;;;16.38;82.33;97507.36;1630649;87;20975;-81
2022/08/10 06:50:37;;;;;;;4.37;3.72;;;;;;;16.46;82.21;97505.92;1635100;86;21118;-80
2022/08/10 06:53:22;;;;;;;6.20;3.02;;;;;;;16.61;80.74;97513.19;1617599;88;21016;-80
2022/08/10 06:55:51;;;;;;;6.30;3.52;;;;;;;16.75;80.26;97509.66;1635976;86;21018;-80
2022/08/10 06:58:20;;;;;;;5.60;3.17;;;;;;;16.87;78.38;97515.18;1633373;88;21074;-81
2022/08/10 07:00:46;;;;;;;5.95;3.42;;;;;;;17.01;78.49;97512.94;1643570;87;21075;-80
2022/08/10 07:03:11;;;;;;;5.92;3.85;;;;;;;17.12;78.59;97519.46;1653798;86;21071;-81
2022/08/10 07:05:42;;;;;;;4.95;3.37;;;;;;;17.19;77.48;97516.34;1617589;88;21016;-81
2022/08/10 07:08:08;;;;;;;5.92;3.50;;;;;;;17.27;78.76;97517.50;1623730;88;21403;-80
2022/08/10 07:10:34;;;;;;;4.85;3.58;;;;;;;17.31;79.31;97520.05;1604430;87;21008;-81
2022/08/10 07:13:00;;;;;;;4.60;4.05;;;;;;;17.33;77.97;97522.47;1594589;88;21035;-80
2022/08/10 07:15:26;;;;;;;9.45;3.90;;;;;;;17.40;77.67;97517.53;1584194;89;21041;-81
2022/08/10 07:17:52;;;;;;;7.50;3.90;;;;;;;17.47;78.42;97520.20;1597719;89;21016;-80
2022/08/10 07:20:19;;;;;;;5.70;3.37;;;;;;;17.51;77.58;97528.49;1595340;89;21400;-81
2022/08/10 07:22:52;;;;;;;5.97;3.90;;;;;;;17.56;78.49;97528.70;1609256;87;21348;-81
2022/08/10 07:25:23;;;;;;;6.72;4.30;;;;;;;17.59;77.07;97530.95;1659620;86;21027;-81
2022/08/10 07:27:50;;;;;;;;;;;;;;;17.60;75.90;97522.06;1646356;86;21019;-81
2022/08/10 07:30:16;;;;;;;7.53;4.08;;;;;;;17.68;76.16;97526.65;1650978;87;20095;-81
2022/08/10 07:32:43;;;;;;;9.40;4.45;;;;;;;17.74;75.55;97523.75;1653093;86;20985;-80
2022/08/10 07:35:12;;;;;;;4.90;4.45;;;;;;;17.79;72.82;97523.95;1649852;87;22004;-81
2022/08/10 07:37:39;;;;;;;7.12;4.33;;;;;;;17.83;73.68;97524.36;1619640;88;21063;-81
2022/08/10 07:40:06;;;;;;;5.12;3.83;;;;;;;17.90;74.57;97526.00;1623090;86;21039;-80
2022/08/10 07:42:32;;;;;;;4.80;3.72;;;;;;;17.93;74.05;97523.48;1654070;85;21003;-81
2022/08/10 07:44:58;;;;;;;7.05;3.30;;;;;;;18.00;73.68;97527.72;1600677;88;21712;-81
2022/08/10 07:47:36;;;;;;;5.60;4.42;;;;;;;18.07;73.72;97528.25;1634249;87;21030;-81
2022/08/10 07:50:06;;;;;;;7.78;4.00;;;;;;;18.10;72.89;97520.77;1622172;87;21012;-81
2022/08/10 07:52:33;;;;;;;6.58;4.00;;;;;;;18.17;73.00;97527.33;1648520;87;20995;-81
2022/08/10 07:54:59;;;;;;;6.08;3.83;;;;;;;18.21;72.91;97525.91;1651278;86;21035;-81
2022/08/10 07:57:27;;;;;;;4.62;3.52;;;;;;;18.24;73.15;97525.02;1653145;86;20980;-81
2022/08/10 07:59:57;;;;;;;6.67;3.60;;;;;;;18.32;73.08;97531.08;1653671;86;21049;-81
2022/08/10 08:02:36;;;;;;;4.75;3.30;;;;;;;18.38;72.99;97525.81;1651865;87;21422;-81
2022/08/10 08:05:08;;;;;;;5.37;3.33;;;;;;;18.46;71.46;97531.39;1643090;87;21007;-81
2022/08/10 08:07:35;;;;;;;5.45;3.70;;;;;;;18.53;71.87;97531.67;1641396;87;20999;-81
2022/08/10 08:10:01;;;;;;;4.20;3.60;;;;;;;18.58;72.52;97533.20;1650739;85;20968;-81
2022/08/10 08:12:27;;;;;;;4.47;3.55;;;;;;;18.59;70.55;97537.45;1651975;87;21485;-81
2022/08/10 08:14:53;;;;;;;5.85;3.25;;;;;;;18.66;70.37;97532.70;1639254;86;21034;-81
2022/08/10 08:17:20;;;;;;;5.53;3.67;;;;;;;18.73;69.98;97538.28;1643586;87;20952;-81
2022/08/10 08:19:48;;;;;;;6.03;3.42;;;;;;;18.78;69.94;97527.12;1659596;84;21127;-81
2022/08/10 08:22:17;;;;;;;5.47;3.55;;;;;;;18.86;69.14;97538.23;1666132;85;21051;-81
2022/08/10 08:24:43;;;;;;;5.15;3.40;;;;;;;18.95;68.42;97537.52;1649628;85;21026;-81
2022/08/10 08:27:11;;;;;;;4.53;3.55;;;;;;;19.01;68.21;97533.24;1651741;85;21401;-81
2022/08/10 08:29:40;;;;;;;4.62;3.10;;;;;;;19.11;68.59;97534.95;1646089;86;21044;-81
2022/08/10 08:32:06;;;;;;;5.15;2.98;;;;;;;19.21;68.31;97535.33;1613954;88;21024;-81
2022/08/10 08:34:36;;;;;;;4.12;3.10;;;;;;;19.29;67.11;97532.95;1599634;87;21009;-81
2022/08/10 08:37:02;;;;;;;6.20;3.10;;;;;;;19.39;67.10;97535.45;1601759;88;21000;-81
2022/08/10 08:39:28;;;;;;;2.98;2.62;;;;;;;19.52;67.11;97535.08;1626466;85;21100;-82
2022/08/10 08:42:33;;;;;;;3.47;2.83;;;;;;;19.60;66.64;97541.47;1646796;87;21977;-81
2022/08/10 08:45:33;;;;;;;4.33;2.72;;;;;;;19.70;66.26;97541.84;1621513;87;21027;-81
2022/08/10 08:48:22;;;;;;;4.50;3.02;;;;;;;19.86;62.62;97536.58;1599123;88;20997;-81
2022/08/10 08:51:26;;;;;;;3.98;2.55;;;;;;;19.91;62.31;97540.70;1594434;89;21023;-81
2022/08/10 08:54:16;;;;;;;3.75;2.72;;;;;;;19.95;62.25;97533.97;1663385;85;21010;-81
2022/08/10 08:56:47;;;;;;;3.25;2.27;;;;;;;20.04;63.54;97529.55;1657982;85;21083;-81
2022/08/10 08:59:42;;;;;;;4.20;2.40;;;;;;;20.12;64.05;97536.38;1647018;84;21422;-81
2022/08/10 09:02:30;;;;;;;4.85;2.20;;;;;;;20.09;62.23;97538.14;1650663;86;21003;-81
2022/08/10 09:05:46;;;;;;;5.10;2.92;;;;;;;20.06;61.96;97529.34;1647283;87;21078;-81
2022/08/10 09:08:43;;;;;;;3.30;2.10;;;;;;;19.97;62.21;97541.95;1603940;89;21030;-81
2022/08/10 09:11:33;;;;;;;3.85;2.58;;;;;;;20.00;62.41;97535.44;1633835;87;20996;-81
2022/08/10 09:14:16;;;;;;;4.65;2.80;;;;;;;19.99;61.01;97525.41;1601843;87;22070;-81
2022/08/10 09:17:12;;;;;;;4.15;2.77;;;;;;;20.08;62.32;97525.97;1616408;88;20975;-81
2022/08/10 09:19:54;;;;;;;4.83;2.75;;;;;;;20.12;62.97;97528.47;1611035;87;21034;-81
2022/08/10 09:22:43;;;;;;;4.87;2.70;;;;;;;20.08;61.21;97524.14;1606059;87;21002;-81
2022/08/10 09:25:22;;;;;;;2.98;2.77;;;;;;;20.07;62.74;97525.67;1585950;87;21424;-81
2022/08/10 09:28:06;;;;;;;4.35;2.50;;;;;;;20.22;61.79;97526.17;1608929;88;21017;-81
2022/08/10 09:30:59;;;;;;;2.62;2.20;;;;;;;20.36;61.83;97515.81;1645131;86;21055;-81
2022/08/10 09:34:03;;;;;;;6.08;3.12;;;;;;;20.49;61.18;97523.33;1643656;86;20991;-81
2022/08/10 09:37:12;;;;;;;3.83;2.80;;;;;;;20.50;60.98;97522.30;1654159;86;20988;-81
2022/08/10 09:39:57;;;;;;;3.25;2.65;;;;;;;20.42;61.15;97524.72;1654155;86;21383;-81
2022/08/10 09:42:47;;;;;;;3.95;2.83;;;;;;;20.44;60.98;97517.90;1638759;87;21003;-82
2022/08/10 09:45:59;;;;;;;2.72;2.17;;;;;;;20.64;61.65;97521.16;1640796;86;21099;-81
2022/08/10 09:48:44;;;;;;;3.45;2.45;;;;;;;20.75;60.90;97517.81;1634571;87;21058;-81
2022/08/10 09:51:37;;;;;;;3.45;2.67;;;;;;;20.93;60.89;97513.05;1636115;86;21422;-81
2022/08/10 09:54:37;;;;;;;3.22;2.72;;;;;;;21.06;60.54;97510.78;1653307;87;21068;-82
2022/08/10 09:57:14;;;;;;;3.35;3.05;;;;;;;21.27;60.15;97511.16;1640704;87;20972;-82
2022/08/10 09:59:46;;;;;;;5.37;2.47;;;;;;;21.43;60.87;97495.72;1628088;87;20992;-81
2022/08/10 10:02:42;;;;;;;3.47;3.08;;;;;;;21.58;60.68;97508.03;1642621;87;21007;-81
2022/08/10 10:05:43;;;;;;;3.40;2.40;;;;;;;21.61;59.67;97502.80;1639486;87;21062;-81
2022/08/10 10:08:29;;;;;;;6.05;3.15;;;;;;;21.69;57.25;97491.41;1637151;87;21056;-82
2022/08/10 10:11:03;;;;;;;5.35;2.75;;;;;;;21.76;59.40;97492.62;1638267;86;20988;-82
2022/08/10 10:13:49;;;;;;;4.08;2.22;;;;;;;21.89;56.94;97483.17;1647465;86;21006;-82
2022/08/10 10:16:44;;;;;;;3.17;2.62;;;;;;;21.95;57.40;97490.70;1639858;87;21034;-81
2022/08/10 10:19:58;;;;;;;4.20;2.75;;;;;;;22.06;58.33;97480.70;1654896;86;20996;-82
2022/08/10 10:22:47;;;;;;;3.00;2.30;;;;;;;22.20;57.90;97488.72;1652968;86;20956;-81
2022/08/10 10:25:30;;;;;;;3.90;2.55;;;;;;;22.36;57.34;97480.63;1635864;87;21423;-82
2022/08/10 10:28:34;;;;;;;2.45;2.25;;;;;;;22.44;56.66;97475.77;1654595;87;21028;-82
2022/08/10 10:31:21;;;;;;;3.67;2.08;;;;;;;22.56;57.07;97474.45;1634295;85;20992;-82
2022/08/10 10:34:28;;;;;;;3.52;2.30;;;;;;;22.72;55.28;97481.70;1649361;87;21011;-82
2022/08/10 10:36:53;;;;;;;4.80;2.55;;;;;;;22.84;56.14;97476.95;1635307;84;21441;-82
2022/08/10 10:39:20;;;;;;;4.67;2.62;;;;;;;22.86;56.37;97470.89;1644488;85;21039;-82
2022/08/10 10:41:59;;;;;;;6.25;2.87;;;;;;;22.87;55.53;97468.52;1649087;84;20992;-81
2022/08/10 10:44:36;;;;;;;3.80;2.42;;;;;;;22.89;55.69;97468.57;1654798;85;21255;-82
2022/08/10 10:47:46;;;;;;;3.20;2.22;;;;;;;22.82;54.70;97461.77;1649011;86;21039;-82
2022/08/10 10:50:18;;;;;;;3.50;2.40;;;;;;;22.79;55.37;97468.86;1660057;86;21414;-81
2022/08/10 10:53:11;;;;;;;2.90;2.40;;;;;;;22.72;54.65;97463.16;1658356;86;20984;-82
2022/08/10 10:55:51;;;;;;;3.60;2.58;;;;;;;22.81;54.61;97472.89;1658755;86;21039;-81
2022/08/10 10:58:28;;;;;;;4.70;2.83;;;;;;;22.95;54.95;97466.85;1663727;85;21027;-82
2022/08/10 11:01:20;;;;;;;4.20;2.52;;;;;;;22.77;54.24;97470.39;1645708;86;20983;-82
2022/08/10 11:03:57;;;;;;;3.47;2.70;;;;;;;22.53;53.52;97464.84;1658763;84;21430;-82
2022/08/10 11:06:34;;;;;;;5.08;2.62;;;;;;;22.32;54.68;97465.72;1655821;85;20991;-82
2022/08/10 11:09:05;;;;;;;4.53;2.58;;;;;;;22.22;54.90;97465.47;1663936;85;21058;-82
2022/08/10 11:11:34;;;;;;;4.00;2.92;;;;;;;22.10;54.87;97462.80;1666030;85;21495;-82
2022/08/10 11:14:35;;;;;;;4.42;2.58;;;;;;;22.06;57.02;97462.98;1656882;84;21316;-82
2022/08/10 11:17:21;;;;;;;3.67;2.30;;;;;;;21.98;57.07;97464.63;1637173;85;21011;-82
2022/08/10 11:20:02;;;;;;;3.27;2.25;;;;;;;21.82;55.64;97466.09;1655681;84;21086;-82
2022/08/10 11:22:51;;;;;;;3.05;2.45;;;;;;;21.82;57.16;97461.31;1639169;85;20967;-82
2022/08/10 11:25:35;;;;;;;3.17;2.05;;;;;;;21.83;57.23;97461.59;1652729;85;21028;-82
2022/08/10 11:28:41;;;;;;;3.10;2.80;;;;;;;22.14;55.84;97461.34;1663540;84;20964;-82
2022/08/10 11:31:26;;;;;;;2.60;2.20;;;;;;;22.25;58.37;97462.88;1682622;85;21072;-82
2022/08/10 11:34:13;;;;;;;3.87;2.08;;;;;;;22.03;54.99;97464.73;1682854;84;21047;-82
2022/08/10 11:37:05;;;;;;;4.08;1.98;;;;;;;21.99;54.83;97460.14;1674853;84;21042;-82
2022/08/10 11:39:58;;;;;;;4.35;2.70;;;;;;;21.99;56.13;97455.65;1668600;84;20992;-82
2022/08/10 11:42:32;;;;;;;3.62;2.45;;;;;;;22.21;55.01;97449.30;1671070;85;20977;-82
2022/08/10 11:45:16;;;;;;;2.87;2.08;;;;;;;22.52;54.87;97447.34;1669493;86;22141;-82
2022/08/10 11:48:06;;;;;;;2.92;1.70;;;;;;;22.56;57.14;97449.81;1671319;86;21072;-82
2022/08/10 11:50:57;;;;;;;2.92;1.82;;;;;;;22.45;56.10;97449.61;1661010;86;21000;-82
2022/08/10 11:53:40;;;;;;;3.15;2.17;;;;;;;22.31;54.40;97450.06;1676378;86;20928;-82
2022/08/10 11:56:06;;;;;;;3.17;2.20;;;;;;;22.22;55.38;97458.85;1654233;84;21510;-81
2022/08/10 12:01:22;;;;;;;2.70;1.98;;;;;;;22.54;56.42;97445.27;1670560;86;21111;-81
2022/08/10 12:03:48;;;;;;;4.62;2.27;;;;;;;22.77;54.11;97443.38;1659195;84;21000;-82
2022/08/10 12:06:17;;;;;;;3.83;2.00;;;;;;;23.09;55.04;97448.81;1648144;84;21059;-82
2022/08/10 12:08:45;;;;;;;3.58;1.90;;;;;;;23.32;52.67;97434.16;1670150;84;21012;-82
2022/08/10 12:11:15;;;;;;;2.72;2.08;;;;;;;23.39;52.60;97426.05;1662334;86;20980;-82